sensor_id;sensor_type;location;lat;lon;timestamp;pressure;altitude;pressure_sealevel;temperature;humidity
64835;BME280;51293;59.296;18.006;2022-08-02T00:02:16;100627.22;;;16.18;77.55
64835;BME280;51293;59.296;18.006;2022-08-02T00:04:41;100626.94;;;16.19;77.58
64835;BME280;51293;59.296;18.006;2022-08-02T00:07:07;100622.81;;;16.12;77.84
64835;BME280;51293;59.296;18.006;2022-08-02T00:09:32;100626.09;;;16.09;77.89
64835;BME280;51293;59.296;18.006;2022-08-02T00:11:58;100630.19;;;16.06;77.67
64835;BME280;51293;59.296;18.006;2022-08-02T00:14:24;100640.31;;;16.06;77.79
64835;BME280;51293;59.296;18.006;2022-08-02T00:16:49;100633.44;;;15.98;78.00
64835;BME280;51293;59.296;18.006;2022-08-02T00:19:15;100633.69;;;15.96;78.17
64835;BME280;51293;59.296;18.006;2022-08-02T00:21:40;100631.78;;;15.92;78.45
64835;BME280;51293;59.296;18.006;2022-08-02T00:24:05;100639.97;;;15.92;78.28
64835;BME280;51293;59.296;18.006;2022-08-02T00:26:31;100630.97;;;15.91;78.17
64835;BME280;51293;59.296;18.006;2022-08-02T00:28:56;100632.88;;;15.91;78.29
64835;BME280;51293;59.296;18.006;2022-08-02T00:31:22;100636.69;;;15.90;78.41
64835;BME280;51293;59.296;18.006;2022-08-02T00:33:47;100632.84;;;15.86;78.56
64835;BME280;51293;59.296;18.006;2022-08-02T00:36:13;100636.13;;;15.83;78.63
64835;BME280;51293;59.296;18.006;2022-08-02T00:38:38;100636.41;;;15.81;78.81
64835;BME280;51293;59.296;18.006;2022-08-02T00:41:10;100633.09;;;15.79;79.07
64835;BME280;51293;59.296;18.006;2022-08-02T00:43:36;100636.66;;;15.75;78.89
64835;BME280;51293;59.296;18.006;2022-08-02T00:46:01;100633.09;;;15.74;78.91
64835;BME280;51293;59.296;18.006;2022-08-02T00:48:27;100628.97;;;15.71;79.09
64835;BME280;51293;59.296;18.006;2022-08-02T00:50:52;100631.16;;;15.69;78.72
64835;BME280;51293;59.296;18.006;2022-08-02T00:53:18;100631.69;;;15.66;79.24
64835;BME280;51293;59.296;18.006;2022-08-02T00:55:43;100632.47;;;15.62;79.24
64835;BME280;51293;59.296;18.006;2022-08-02T00:58:08;100631.34;;;15.58;79.04
64835;BME280;51293;59.296;18.006;2022-08-02T01:00:34;100633.78;;;15.49;79.55
64835;BME280;51293;59.296;18.006;2022-08-02T01:02:59;100638.13;;;15.50;79.83
64835;BME280;51293;59.296;18.006;2022-08-02T01:05:24;100637.59;;;15.48;79.84
64835;BME280;51293;59.296;18.006;2022-08-02T01:07:50;100641.66;;;15.45;79.86
64835;BME280;51293;59.296;18.006;2022-08-02T01:10:16;100643.56;;;15.45;80.07
64835;BME280;51293;59.296;18.006;2022-08-02T01:12:41;100648.47;;;15.43;80.06
64835;BME280;51293;59.296;18.006;2022-08-02T01:15:09;100645.19;;;15.41;80.56
64835;BME280;51293;59.296;18.006;2022-08-02T01:23:08;100653.28;;;15.26;80.90
64835;BME280;51293;59.296;18.006;2022-08-02T01:28:40;100652.69;;;15.18;80.94
64835;BME280;51293;59.296;18.006;2022-08-02T01:31:25;100649.09;;;15.13;80.84
64835;BME280;51293;59.296;18.006;2022-08-02T01:33:58;100649.91;;;15.08;81.44
64835;BME280;51293;59.296;18.006;2022-08-02T01:36:27;100651.50;;;15.04;81.35
64835;BME280;51293;59.296;18.006;2022-08-02T01:38:56;100650.41;;;15.05;81.50
64835;BME280;51293;59.296;18.006;2022-08-02T01:41:24;100657.22;;;15.03;81.85
64835;BME280;51293;59.296;18.006;2022-08-02T01:43:54;100659.91;;;14.98;81.70
64835;BME280;51293;59.296;18.006;2022-08-02T01:46:21;100660.47;;;15.00;82.02
64835;BME280;51293;59.296;18.006;2022-08-02T01:48:49;100663.19;;;15.00;82.14
64835;BME280;51293;59.296;18.006;2022-08-02T01:51:16;100668.09;;;14.98;81.90
64835;BME280;51293;59.296;18.006;2022-08-02T01:53:44;100672.47;;;14.99;81.87
64835;BME280;51293;59.296;18.006;2022-08-02T01:56:12;100665.59;;;14.96;82.06
64835;BME280;51293;59.296;18.006;2022-08-02T01:58:40;100683.03;;;14.90;82.26
64835;BME280;51293;59.296;18.006;2022-08-02T02:01:08;100674.81;;;14.85;82.16
64835;BME280;51293;59.296;18.006;2022-08-02T02:03:37;100675.34;;;14.82;82.12
64835;BME280;51293;59.296;18.006;2022-08-02T02:06:04;100670.91;;;14.76;82.13
64835;BME280;51293;59.296;18.006;2022-08-02T02:08:37;100675.22;;;14.72;82.30
64835;BME280;51293;59.296;18.006;2022-08-02T02:11:05;100680.94;;;14.70;82.98
64835;BME280;51293;59.296;18.006;2022-08-02T02:13:31;100681.22;;;14.69;83.25
64835;BME280;51293;59.296;18.006;2022-08-02T02:15:58;100691.03;;;14.70;83.78
64835;BME280;51293;59.296;18.006;2022-08-02T02:18:28;100686.13;;;14.72;84.03
64835;BME280;51293;59.296;18.006;2022-08-02T02:20:54;100681.50;;;14.72;84.30
64835;BME280;51293;59.296;18.006;2022-08-02T02:23:19;100691.09;;;14.75;84.75
64835;BME280;51293;59.296;18.006;2022-08-02T02:25:45;100691.59;;;14.72;84.91
64835;BME280;51293;59.296;18.006;2022-08-02T02:28:22;100693.50;;;14.71;85.70
64835;BME280;51293;59.296;18.006;2022-08-02T02:30:59;100694.06;;;14.73;86.13
64835;BME280;51293;59.296;18.006;2022-08-02T02:33:26;100698.44;;;14.74;86.06
64835;BME280;51293;59.296;18.006;2022-08-02T02:35:55;100701.72;;;14.76;87.00
64835;BME280;51293;59.296;18.006;2022-08-02T02:38:22;100711.47;;;14.72;86.89
64835;BME280;51293;59.296;18.006;2022-08-02T02:40:50;100710.66;;;14.72;87.28
64835;BME280;51293;59.296;18.006;2022-08-02T02:43:16;100712.91;;;14.75;87.80
64835;BME280;51293;59.296;18.006;2022-08-02T02:45:42;100704.97;;;14.73;87.86
64835;BME280;51293;59.296;18.006;2022-08-02T02:48:10;100711.47;;;14.72;87.82
64835;BME280;51293;59.296;18.006;2022-08-02T02:50:37;100703.09;;;14.79;87.62
64835;BME280;51293;59.296;18.006;2022-08-02T02:53:03;100710.94;;;14.70;88.32
64835;BME280;51293;59.296;18.006;2022-08-02T02:55:31;100716.66;;;14.69;88.18
64835;BME280;51293;59.296;18.006;2022-08-02T02:57:57;100713.91;;;14.69;88.17
64835;BME280;51293;59.296;18.006;2022-08-02T03:00:23;100715.25;;;14.66;88.51
64835;BME280;51293;59.296;18.006;2022-08-02T03:03:08;100715.53;;;14.65;88.63
64835;BME280;51293;59.296;18.006;2022-08-02T03:05:33;100724.75;;;14.64;88.61
64835;BME280;51293;59.296;18.006;2022-08-02T03:07:59;100728.56;;;14.63;88.54
64835;BME280;51293;59.296;18.006;2022-08-02T03:10:25;100726.09;;;14.61;88.48
64835;BME280;51293;59.296;18.006;2022-08-02T03:12:51;100728.53;;;14.57;88.48
64835;BME280;51293;59.296;18.006;2022-08-02T03:15:16;100731.19;;;14.52;88.57
64835;BME280;51293;59.296;18.006;2022-08-02T03:17:44;100735.00;;;14.51;87.75
64835;BME280;51293;59.296;18.006;2022-08-02T03:20:12;100740.63;;;14.45;87.35
64835;BME280;51293;59.296;18.006;2022-08-02T03:22:38;100746.34;;;14.43;86.94
64835;BME280;51293;59.296;18.006;2022-08-02T03:25:03;100745.44;;;14.38;87.25
64835;BME280;51293;59.296;18.006;2022-08-02T03:27:29;100752.03;;;14.42;86.24
64835;BME280;51293;59.296;18.006;2022-08-02T03:29:54;100759.84;;;14.33;86.33
64835;BME280;51293;59.296;18.006;2022-08-02T03:32:20;100751.34;;;14.29;85.94
64835;BME280;51293;59.296;18.006;2022-08-02T03:34:45;100755.09;;;14.23;85.48
64835;BME280;51293;59.296;18.006;2022-08-02T03:37:11;100754.22;;;14.18;85.81
64835;BME280;51293;59.296;18.006;2022-08-02T03:39:37;100762.94;;;14.20;85.49
64835;BME280;51293;59.296;18.006;2022-08-02T03:42:02;100757.50;;;14.20;85.37
64835;BME280;51293;59.296;18.006;2022-08-02T03:44:29;100764.78;;;14.14;85.32
64835;BME280;51293;59.296;18.006;2022-08-02T03:46:56;100763.47;;;14.17;85.48
64835;BME280;51293;59.296;18.006;2022-08-02T03:49:22;100772.13;;;14.14;85.40
64835;BME280;51293;59.296;18.006;2022-08-02T03:51:48;100776.25;;;14.16;85.42
64835;BME280;51293;59.296;18.006;2022-08-02T03:54:13;100785.31;;;14.22;84.96
64835;BME280;51293;59.296;18.006;2022-08-02T03:56:41;100775.03;;;14.29;85.03
64835;BME280;51293;59.296;18.006;2022-08-02T03:59:11;100782.97;;;14.30;84.46
64835;BME280;51293;59.296;18.006;2022-08-02T04:01:38;100786.47;;;14.26;83.72
64835;BME280;51293;59.296;18.006;2022-08-02T04:04:04;100788.91;;;14.27;83.41
64835;BME280;51293;59.296;18.006;2022-08-02T04:06:30;100778.84;;;14.28;83.21
64835;BME280;51293;59.296;18.006;2022-08-02T04:08:55;100789.81;;;14.33;83.33
64835;BME280;51293;59.296;18.006;2022-08-02T04:11:21;100796.66;;;14.36;83.01
64835;BME280;51293;59.296;18.006;2022-08-02T04:13:59;100795.06;;;14.40;82.71
64835;BME280;51293;59.296;18.006;2022-08-02T04:16:44;100796.34;;;14.32;82.85
64835;BME280;51293;59.296;18.006;2022-08-02T04:19:16;100792.59;;;14.38;82.79
64835;BME280;51293;59.296;18.006;2022-08-02T04:21:45;100788.78;;;14.39;82.65
64835;BME280;51293;59.296;18.006;2022-08-02T04:24:13;100799.25;;;14.47;82.17
64835;BME280;51293;59.296;18.006;2022-08-02T04:26:41;100802.59;;;14.49;82.13
64835;BME280;51293;59.296;18.006;2022-08-02T04:29:08;100803.97;;;14.52;81.93
64835;BME280;51293;59.296;18.006;2022-08-02T04:31:35;100814.78;;;14.47;81.55
64835;BME280;51293;59.296;18.006;2022-08-02T04:34:00;100811.91;;;14.37;81.44
64835;BME280;51293;59.296;18.006;2022-08-02T04:36:26;100814.91;;;14.35;81.46
64835;BME280;51293;59.296;18.006;2022-08-02T04:38:52;100821.31;;;14.24;81.75
64835;BME280;51293;59.296;18.006;2022-08-02T04:41:17;100814.78;;;14.25;81.73
64835;BME280;51293;59.296;18.006;2022-08-02T04:43:43;100827.88;;;14.28;81.60
64835;BME280;51293;59.296;18.006;2022-08-02T04:46:08;100834.16;;;14.28;81.18
64835;BME280;51293;59.296;18.006;2022-08-02T04:48:34;100843.28;;;14.17;81.49
64835;BME280;51293;59.296;18.006;2022-08-02T04:50:59;100840.22;;;14.14;81.93
64835;BME280;51293;59.296;18.006;2022-08-02T04:53:24;100847.66;;;14.18;81.73
64835;BME280;51293;59.296;18.006;2022-08-02T04:55:50;100849.03;;;14.21;81.33
64835;BME280;51293;59.296;18.006;2022-08-02T04:58:15;100855.91;;;14.23;81.38
64835;BME280;51293;59.296;18.006;2022-08-02T05:00:41;100849.13;;;14.26;81.31
64835;BME280;51293;59.296;18.006;2022-08-02T05:03:07;100850.75;;;14.27;81.23
64835;BME280;51293;59.296;18.006;2022-08-02T05:05:32;100850.50;;;14.28;81.14
64835;BME280;51293;59.296;18.006;2022-08-02T05:07:58;100861.97;;;14.30;80.78
64835;BME280;51293;59.296;18.006;2022-08-02T05:10:24;100860.97;;;14.37;80.34
64835;BME280;51293;59.296;18.006;2022-08-02T05:12:49;100862.56;;;14.32;80.01
64835;BME280;51293;59.296;18.006;2022-08-02T05:15:15;100859.63;;;14.39;79.64
64835;BME280;51293;59.296;18.006;2022-08-02T05:17:43;100859.47;;;14.46;79.40
64835;BME280;51293;59.296;18.006;2022-08-02T05:20:10;100855.94;;;14.45;79.20
64835;BME280;51293;59.296;18.006;2022-08-02T05:22:37;100856.56;;;14.52;79.21
64835;BME280;51293;59.296;18.006;2022-08-02T05:25:03;100856.88;;;14.56;78.57
64835;BME280;51293;59.296;18.006;2022-08-02T05:27:28;100858.22;;;14.53;78.78
64835;BME280;51293;59.296;18.006;2022-08-02T05:29:54;100855.81;;;14.57;78.70
64835;BME280;51293;59.296;18.006;2022-08-02T05:32:21;100859.84;;;14.54;78.54
64835;BME280;51293;59.296;18.006;2022-08-02T05:34:47;100865.94;;;14.61;77.98
64835;BME280;51293;59.296;18.006;2022-08-02T05:37:12;100870.91;;;14.65;78.04
64835;BME280;51293;59.296;18.006;2022-08-02T05:39:37;100874.50;;;14.70;77.41
64835;BME280;51293;59.296;18.006;2022-08-02T05:42:03;100865.56;;;14.75;76.94
64835;BME280;51293;59.296;18.006;2022-08-02T05:44:28;100871.66;;;14.82;76.99
64835;BME280;51293;59.296;18.006;2022-08-02T05:46:54;100870.06;;;14.86;76.82
64835;BME280;51293;59.296;18.006;2022-08-02T05:49:19;100886.50;;;14.91;76.93
64835;BME280;51293;59.296;18.006;2022-08-02T05:51:55;100881.91;;;14.97;76.00
64835;BME280;51293;59.296;18.006;2022-08-02T05:54:54;100883.34;;;15.04;75.68
64835;BME280;51293;59.296;18.006;2022-08-02T05:58:26;100892.41;;;15.10;75.61
64835;BME280;51293;59.296;18.006;2022-08-02T06:00:29;100896.22;;;15.09;75.34
64835;BME280;51293;59.296;18.006;2022-08-02T06:05:30;100897.34;;;15.13;75.00
64835;BME280;51293;59.296;18.006;2022-08-02T06:07:57;100897.34;;;15.13;75.32
64835;BME280;51293;59.296;18.006;2022-08-02T06:10:23;100891.75;;;15.25;74.90
64835;BME280;51293;59.296;18.006;2022-08-02T06:13:00;100891.19;;;15.23;74.48
64835;BME280;51293;59.296;18.006;2022-08-02T06:15:29;100898.31;;;15.24;74.47
64835;BME280;51293;59.296;18.006;2022-08-02T06:17:55;100902.97;;;15.28;74.53
64835;BME280;51293;59.296;18.006;2022-08-02T06:20:22;100907.94;;;15.31;74.50
64835;BME280;51293;59.296;18.006;2022-08-02T06:22:48;100909.25;;;15.29;74.19
64835;BME280;51293;59.296;18.006;2022-08-02T06:25:15;100902.22;;;15.33;73.89
64835;BME280;51293;59.296;18.006;2022-08-02T06:27:40;100903.88;;;15.39;74.07
64835;BME280;51293;59.296;18.006;2022-08-02T06:30:07;100900.84;;;15.35;73.97
64835;BME280;51293;59.296;18.006;2022-08-02T06:32:33;100903.38;;;15.42;74.06
64835;BME280;51293;59.296;18.006;2022-08-02T06:34:59;100906.16;;;15.47;74.09
64835;BME280;51293;59.296;18.006;2022-08-02T06:37:43;100907.56;;;15.50;74.22
64835;BME280;51293;59.296;18.006;2022-08-02T06:40:28;100897.63;;;15.65;73.43
64835;BME280;51293;59.296;18.006;2022-08-02T06:43:11;100910.47;;;15.65;73.56
64835;BME280;51293;59.296;18.006;2022-08-02T06:45:38;100912.91;;;15.66;73.97
64835;BME280;51293;59.296;18.006;2022-08-02T06:48:05;100910.28;;;15.77;73.23
64835;BME280;51293;59.296;18.006;2022-08-02T06:50:31;100915.25;;;15.85;72.83
64835;BME280;51293;59.296;18.006;2022-08-02T06:52:56;100911.16;;;15.82;72.95
64835;BME280;51293;59.296;18.006;2022-08-02T06:55:22;100921.13;;;16.04;72.38
64835;BME280;51293;59.296;18.006;2022-08-02T06:57:47;100923.22;;;15.91;72.69
64835;BME280;51293;59.296;18.006;2022-08-02T07:00:13;100930.13;;;15.99;72.71
64835;BME280;51293;59.296;18.006;2022-08-02T07:02:39;100937.84;;;16.07;72.19
64835;BME280;51293;59.296;18.006;2022-08-02T07:05:05;100933.78;;;16.15;71.48
64835;BME280;51293;59.296;18.006;2022-08-02T07:07:31;100924.25;;;16.17;70.89
64835;BME280;51293;59.296;18.006;2022-08-02T07:09:57;100930.31;;;16.24;70.23
64835;BME280;51293;59.296;18.006;2022-08-02T07:12:23;100925.16;;;16.38;70.34
64835;BME280;51293;59.296;18.006;2022-08-02T07:14:48;100923.28;;;16.39;69.96
64835;BME280;51293;59.296;18.006;2022-08-02T07:17:14;100927.75;;;16.55;68.92
64835;BME280;51293;59.296;18.006;2022-08-02T07:19:39;100934.88;;;16.61;68.83
64835;BME280;51293;59.296;18.006;2022-08-02T07:22:04;100939.63;;;16.76;67.55
64835;BME280;51293;59.296;18.006;2022-08-02T07:24:30;100937.22;;;16.84;67.43
64835;BME280;51293;59.296;18.006;2022-08-02T07:26:56;100939.25;;;17.20;67.13
64835;BME280;51293;59.296;18.006;2022-08-02T07:29:22;100930.25;;;17.45;65.13
64835;BME280;51293;59.296;18.006;2022-08-02T07:31:47;100935.22;;;17.48;64.27
64835;BME280;51293;59.296;18.006;2022-08-02T07:34:13;100928.09;;;17.62;64.87
64835;BME280;51293;59.296;18.006;2022-08-02T07:36:38;100936.59;;;17.65;64.31
64835;BME280;51293;59.296;18.006;2022-08-02T07:39:03;100939.94;;;17.73;63.55
64835;BME280;51293;59.296;18.006;2022-08-02T07:41:29;100939.91;;;17.78;63.15
64835;BME280;51293;59.296;18.006;2022-08-02T07:43:54;100946.50;;;17.77;63.25
64835;BME280;51293;59.296;18.006;2022-08-02T07:46:20;100950.06;;;17.82;64.31
64835;BME280;51293;59.296;18.006;2022-08-02T07:48:46;100923.75;;;17.91;63.34
64835;BME280;51293;59.296;18.006;2022-08-02T07:51:12;100928.69;;;17.94;62.27
64835;BME280;51293;59.296;18.006;2022-08-02T07:53:37;100932.25;;;17.75;61.67
64835;BME280;51293;59.296;18.006;2022-08-02T07:56:03;100941.22;;;17.45;62.67
64835;BME280;51293;59.296;18.006;2022-08-02T07:58:28;100946.16;;;17.48;63.60
64835;BME280;51293;59.296;18.006;2022-08-02T08:00:54;100946.69;;;17.45;63.25
64835;BME280;51293;59.296;18.006;2022-08-02T08:03:19;100952.75;;;17.47;64.03
64835;BME280;51293;59.296;18.006;2022-08-02T08:05:45;100942.63;;;17.57;63.37
64835;BME280;51293;59.296;18.006;2022-08-02T08:08:11;100936.06;;;17.63;63.08
64835;BME280;51293;59.296;18.006;2022-08-02T08:10:39;100956.06;;;17.64;62.19
64835;BME280;51293;59.296;18.006;2022-08-02T08:13:05;100961.53;;;17.69;62.66
64835;BME280;51293;59.296;18.006;2022-08-02T08:15:30;100957.72;;;17.75;61.91
64835;BME280;51293;59.296;18.006;2022-08-02T08:17:56;100959.09;;;17.93;61.75
64835;BME280;51293;59.296;18.006;2022-08-02T08:20:21;100960.19;;;18.28;61.36
64835;BME280;51293;59.296;18.006;2022-08-02T08:22:47;100959.59;;;18.51;60.24
64835;BME280;51293;59.296;18.006;2022-08-02T08:25:12;100962.88;;;18.58;58.73
64835;BME280;51293;59.296;18.006;2022-08-02T08:27:49;100962.47;;;19.00;58.09
64835;BME280;51293;59.296;18.006;2022-08-02T08:30:15;100959.31;;;19.32;56.80
64835;BME280;51293;59.296;18.006;2022-08-02T08:32:41;100967.53;;;19.77;55.78
64835;BME280;51293;59.296;18.006;2022-08-02T08:35:06;100964.59;;;20.36;54.47
64835;BME280;51293;59.296;18.006;2022-08-02T08:37:36;100963.63;;;20.99;52.36
64835;BME280;51293;59.296;18.006;2022-08-02T08:40:04;100962.91;;;21.36;50.68
64835;BME280;51293;59.296;18.006;2022-08-02T08:42:30;100958.13;;;21.61;49.09
64835;BME280;51293;59.296;18.006;2022-08-02T08:44:57;100960.38;;;21.91;47.98
64835;BME280;51293;59.296;18.006;2022-08-02T08:47:28;100953.50;;;22.26;47.45
64835;BME280;51293;59.296;18.006;2022-08-02T08:50:02;100969.84;;;22.50;45.77
64835;BME280;51293;59.296;18.006;2022-08-02T08:52:30;100975.81;;;22.57;45.21
64835;BME280;51293;59.296;18.006;2022-08-02T08:54:59;100973.72;;;22.03;46.54
64835;BME280;51293;59.296;18.006;2022-08-02T08:57:25;100980.81;;;22.09;47.12
64835;BME280;51293;59.296;18.006;2022-08-02T08:59:53;100982.84;;;22.50;45.58
64835;BME280;51293;59.296;18.006;2022-08-02T09:02:19;100976.13;;;22.69;45.29
64835;BME280;51293;59.296;18.006;2022-08-02T09:04:44;100971.31;;;23.16;44.63
64835;BME280;51293;59.296;18.006;2022-08-02T09:07:10;100963.66;;;23.27;44.22
64835;BME280;51293;59.296;18.006;2022-08-02T09:09:35;100966.88;;;23.43;43.60
64835;BME280;51293;59.296;18.006;2022-08-02T09:12:14;100969.78;;;23.74;42.98
64835;BME280;51293;59.296;18.006;2022-08-02T09:14:40;100961.97;;;23.98;42.97
64835;BME280;51293;59.296;18.006;2022-08-02T09:17:07;100969.41;;;24.12;43.60
64835;BME280;51293;59.296;18.006;2022-08-02T09:19:34;100974.72;;;24.30;42.26
64835;BME280;51293;59.296;18.006;2022-08-02T09:22:06;100973.59;;;24.31;42.45
64835;BME280;51293;59.296;18.006;2022-08-02T09:24:49;100974.53;;;24.49;41.58
64835;BME280;51293;59.296;18.006;2022-08-02T09:27:20;100982.81;;;24.49;41.35
64835;BME280;51293;59.296;18.006;2022-08-02T09:29:52;100981.78;;;23.55;41.95
64835;BME280;51293;59.296;18.006;2022-08-02T09:32:18;100983.34;;;23.48;42.30
64835;BME280;51293;59.296;18.006;2022-08-02T09:39:48;100985.59;;;24.49;39.65
64835;BME280;51293;59.296;18.006;2022-08-02T09:42:13;100981.91;;;24.62;38.98
64835;BME280;51293;59.296;18.006;2022-08-02T09:44:39;100973.03;;;23.98;40.26
64835;BME280;51293;59.296;18.006;2022-08-02T09:47:13;100977.81;;;24.29;40.81
64835;BME280;51293;59.296;18.006;2022-08-02T09:49:45;100980.28;;;24.61;39.57
64835;BME280;51293;59.296;18.006;2022-08-02T09:52:10;100975.72;;;24.65;39.31
64835;BME280;51293;59.296;18.006;2022-08-02T09:54:38;100978.78;;;24.95;38.65
64835;BME280;51293;59.296;18.006;2022-08-02T09:57:04;100981.72;;;24.99;38.29
64835;BME280;51293;59.296;18.006;2022-08-02T09:59:29;100969.28;;;24.79;37.96
64835;BME280;51293;59.296;18.006;2022-08-02T10:01:58;100978.78;;;24.55;38.20
64835;BME280;51293;59.296;18.006;2022-08-02T10:04:26;100962.84;;;24.07;38.16
64835;BME280;51293;59.296;18.006;2022-08-02T10:06:55;100959.03;;;24.17;37.95
64835;BME280;51293;59.296;18.006;2022-08-02T10:09:23;100965.38;;;23.95;38.57
64835;BME280;51293;59.296;18.006;2022-08-02T10:11:50;100966.84;;;24.24;38.69
64835;BME280;51293;59.296;18.006;2022-08-02T10:14:15;100964.38;;;24.36;36.46
64835;BME280;51293;59.296;18.006;2022-08-02T10:16:43;100962.84;;;24.30;36.23
64835;BME280;51293;59.296;18.006;2022-08-02T10:19:09;100967.06;;;23.82;37.01
64835;BME280;51293;59.296;18.006;2022-08-02T10:21:47;100964.50;;;23.64;38.85
64835;BME280;51293;59.296;18.006;2022-08-02T10:24:17;100958.59;;;23.43;39.28
64835;BME280;51293;59.296;18.006;2022-08-02T10:26:44;100951.16;;;23.30;38.96
64835;BME280;51293;59.296;18.006;2022-08-02T10:29:14;100954.88;;;23.47;36.50
64835;BME280;51293;59.296;18.006;2022-08-02T10:31:48;100962.25;;;23.52;37.43
64835;BME280;51293;59.296;18.006;2022-08-02T10:34:17;100967.72;;;23.43;38.10
64835;BME280;51293;59.296;18.006;2022-08-02T10:36:44;100958.69;;;23.51;39.12
64835;BME280;51293;59.296;18.006;2022-08-02T10:39:10;100962.03;;;23.48;37.78
64835;BME280;51293;59.296;18.006;2022-08-02T10:41:54;100968.22;;;23.81;38.13
64835;BME280;51293;59.296;18.006;2022-08-02T10:46:44;100964.69;;;23.67;39.16
64835;BME280;51293;59.296;18.006;2022-08-02T10:49:11;100959.31;;;23.85;38.78
64835;BME280;51293;59.296;18.006;2022-08-02T10:54:39;100952.75;;;24.03;39.37
64835;BME280;51293;59.296;18.006;2022-08-02T10:57:16;100964.13;;;24.01;38.70
64835;BME280;51293;59.296;18.006;2022-08-02T10:59:42;100958.22;;;23.58;39.63
64835;BME280;51293;59.296;18.006;2022-08-02T11:02:08;100963.06;;;23.52;38.78
64835;BME280;51293;59.296;18.006;2022-08-02T11:07:14;100970.22;;;22.76;39.34
64835;BME280;51293;59.296;18.006;2022-08-02T11:09:42;100981.03;;;22.73;40.64
64835;BME280;51293;59.296;18.006;2022-08-02T11:12:10;100983.78;;;22.59;41.96
64835;BME280;51293;59.296;18.006;2022-08-02T11:14:39;100983.78;;;22.73;40.96
64835;BME280;51293;59.296;18.006;2022-08-02T11:17:05;100987.59;;;22.77;40.86
64835;BME280;51293;59.296;18.006;2022-08-02T11:19:31;100977.09;;;22.92;41.19
64835;BME280;51293;59.296;18.006;2022-08-02T11:22:06;100974.00;;;23.08;40.42
64835;BME280;51293;59.296;18.006;2022-08-02T11:24:38;100973.06;;;23.26;40.02
64835;BME280;51293;59.296;18.006;2022-08-02T11:27:08;100968.38;;;23.49;38.91
64835;BME280;51293;59.296;18.006;2022-08-02T11:29:42;100977.53;;;24.08;37.73
64835;BME280;51293;59.296;18.006;2022-08-02T11:32:21;100974.75;;;24.08;37.89
64835;BME280;51293;59.296;18.006;2022-08-02T11:34:49;100978.97;;;24.05;37.24
64835;BME280;51293;59.296;18.006;2022-08-02T11:37:34;100979.28;;;23.32;38.23
64835;BME280;51293;59.296;18.006;2022-08-02T11:40:01;100976.69;;;22.85;37.92
64835;BME280;51293;59.296;18.006;2022-08-02T11:42:33;100984.41;;;22.83;38.27
64835;BME280;51293;59.296;18.006;2022-08-02T11:44:59;100979.31;;;22.90;37.25
64835;BME280;51293;59.296;18.006;2022-08-02T11:47:25;100973.81;;;23.04;36.34
64835;BME280;51293;59.296;18.006;2022-08-02T11:49:50;100972.94;;;23.31;36.31
64835;BME280;51293;59.296;18.006;2022-08-02T11:52:15;100974.13;;;24.11;35.46
64835;BME280;51293;59.296;18.006;2022-08-02T11:54:42;100969.09;;;24.67;34.46
64835;BME280;51293;59.296;18.006;2022-08-02T11:57:15;100972.72;;;24.45;34.63
64835;BME280;51293;59.296;18.006;2022-08-02T11:59:42;100971.03;;;23.90;35.85
64835;BME280;51293;59.296;18.006;2022-08-02T12:02:08;100967.63;;;23.71;35.83
64835;BME280;51293;59.296;18.006;2022-08-02T12:04:34;100969.19;;;23.13;36.94
64835;BME280;51293;59.296;18.006;2022-08-02T12:07:01;100972.66;;;22.91;37.37
64835;BME280;51293;59.296;18.006;2022-08-02T12:09:28;100973.16;;;23.21;36.34
64835;BME280;51293;59.296;18.006;2022-08-02T12:11:55;100974.06;;;23.30;35.12
64835;BME280;51293;59.296;18.006;2022-08-02T12:14:22;100976.25;;;23.19;34.83
64835;BME280;51293;59.296;18.006;2022-08-02T12:16:48;100967.47;;;22.90;34.16
64835;BME280;51293;59.296;18.006;2022-08-02T12:19:33;100970.72;;;22.78;34.50
64835;BME280;51293;59.296;18.006;2022-08-02T12:22:15;100978.00;;;22.28;35.77
64835;BME280;51293;59.296;18.006;2022-08-02T12:24:46;100976.94;;;22.42;34.34
64835;BME280;51293;59.296;18.006;2022-08-02T12:27:36;100975.22;;;22.14;35.09
64835;BME280;51293;59.296;18.006;2022-08-02T12:30:06;100962.44;;;21.85;36.18
64835;BME280;51293;59.296;18.006;2022-08-02T12:32:32;100972.25;;;21.73;35.15
64835;BME280;51293;59.296;18.006;2022-08-02T12:35:06;100963.44;;;21.90;33.81
64835;BME280;51293;59.296;18.006;2022-08-02T12:37:32;100968.47;;;21.87;33.68
64835;BME280;51293;59.296;18.006;2022-08-02T12:39:57;100965.44;;;22.03;33.13
64835;BME280;51293;59.296;18.006;2022-08-02T12:42:23;100970.22;;;21.97;33.08
64835;BME280;51293;59.296;18.006;2022-08-02T12:44:56;100963.88;;;21.97;32.99
64835;BME280;51293;59.296;18.006;2022-08-02T12:47:25;100962.47;;;21.99;33.33
64835;BME280;51293;59.296;18.006;2022-08-02T12:50:20;100964.44;;;21.80;33.60
64835;BME280;51293;59.296;18.006;2022-08-02T12:52:49;100965.75;;;21.82;33.92
64835;BME280;51293;59.296;18.006;2022-08-02T12:57:53;100970.00;;;21.94;35.12
64835;BME280;51293;59.296;18.006;2022-08-02T13:00:25;100968.50;;;22.34;35.08
64835;BME280;51293;59.296;18.006;2022-08-02T13:02:51;100953.22;;;22.83;33.89
64835;BME280;51293;59.296;18.006;2022-08-02T13:05:16;100959.28;;;23.48;33.50
64835;BME280;51293;59.296;18.006;2022-08-02T13:07:42;100959.03;;;24.17;31.98
64835;BME280;51293;59.296;18.006;2022-08-02T13:10:07;100959.06;;;24.97;33.00
64835;BME280;51293;59.296;18.006;2022-08-02T13:12:33;100948.28;;;25.87;30.30